Russell, Mississippi
Current Conditions -  °F | °C
As of 1:58 PM on Monday 24 Nov 2014 (Local Time) from KMEI Reporting Station
Clear Clear  
Wind Chill: 63°   Ceiling: Unl
Heat Index: 63°   Visibility: 10mi
Dew Point: 43°   Wind: 13mph
Humidity: 48%   Direction: 270°W
Pressure: 29.9"   Gusts: 17mph
Location:  32.3221°N, 88.5771°W
Report Text: KMEI 241958Z 27011G15KT 10SM CLR 17/06 A2990 RMK AO2 SLP124 T01720061
Loading
Personal Weather Stations






























Interactive Weather Map New forecast layout! Learn more

10-Day Weather Forecast

Advertisements
Track Severe Weather on mobile